createdAt,value
2023-02-11T00:00:21.753Z,30.35
2023-02-11T00:02:54.846Z,23.65
2023-02-11T00:05:27.319Z,26.98
2023-02-11T00:07:59.850Z,15.18
2023-02-11T00:10:32.197Z,18.88
2023-02-11T00:13:04.659Z,22.23
2023-02-11T00:15:37.134Z,12.88
2023-02-11T00:18:10.226Z,22.83
2023-02-11T00:20:42.953Z,17.30
2023-02-11T00:23:15.742Z,12.05
2023-02-11T00:25:48.143Z,18.05
2023-02-11T00:28:20.543Z,19.00
2023-02-11T00:30:55.245Z,14.73
2023-02-11T00:33:28.570Z,32.67
2023-02-11T00:36:04.219Z,31.77
2023-02-11T00:38:36.574Z,14.27
2023-02-11T00:41:08.982Z,34.47
2023-02-11T00:43:41.861Z,32.05
2023-02-11T00:46:14.578Z,29.88
2023-02-11T00:48:48.393Z,34.33
2023-02-11T00:51:20.862Z,29.38
2023-02-11T00:53:53.742Z,29.88
2023-02-11T00:56:26.464Z,28.60
2023-02-11T00:58:58.855Z,12.95
2023-02-11T01:01:31.319Z,11.00
2023-02-11T01:04:04.749Z,17.25
2023-02-11T01:06:37.132Z,5.18
2023-02-11T01:09:11.183Z,3.55
2023-02-11T01:11:43.674Z,12.85
2023-02-11T01:14:17.358Z,18.17
2023-02-11T01:16:49.725Z,12.68
2023-02-11T01:19:22.926Z,3.72
2023-02-11T01:21:55.288Z,10.30
2023-02-11T01:24:27.971Z,17.20
2023-02-11T01:27:00.419Z,13.60
2023-02-11T01:29:32.837Z,11.27
2023-02-11T01:32:05.294Z,5.32
2023-02-11T01:34:38.464Z,5.40
2023-02-11T01:37:11.098Z,6.40
2023-02-11T01:39:43.501Z,12.07
2023-02-11T01:42:20.853Z,13.57
2023-02-11T01:44:55.156Z,7.03
2023-02-11T01:47:27.575Z,14.02
2023-02-11T01:50:01.877Z,17.92
2023-02-11T01:52:39.035Z,10.10
2023-02-11T01:55:32.133Z,5.45
2023-02-11T01:58:05.425Z,4.40
2023-02-11T02:00:40.985Z,6.18
2023-02-11T02:03:18.824Z,10.90
2023-02-11T02:05:55.286Z,4.35
2023-02-11T02:08:31.501Z,5.13
2023-02-11T02:11:04.356Z,5.68
2023-02-11T02:13:36.974Z,4.25
2023-02-11T02:16:13.803Z,7.18
2023-02-11T02:18:56.005Z,4.97
2023-02-11T02:22:13.552Z,11.77
2023-02-11T02:25:00.284Z,5.03
2023-02-11T02:27:54.718Z,21.65
2023-02-11T02:30:49.319Z,7.75
2023-02-11T02:33:37.103Z,7.47
2023-02-11T02:36:18.037Z,14.60
2023-02-11T02:38:55.759Z,26.38
2023-02-11T02:41:31.089Z,25.10
2023-02-11T02:44:04.379Z,18.38
2023-02-11T02:46:37.330Z,29.58
2023-02-11T02:49:12.841Z,21.65
2023-02-11T02:52:23.423Z,8.55
2023-02-11T02:55:22.680Z,7.35
2023-02-11T02:58:08.938Z,10.52
2023-02-11T03:00:50.626Z,3.00
2023-02-11T03:03:32.556Z,11.88
2023-02-11T03:06:12.121Z,20.05
2023-02-11T03:08:49.112Z,10.18
2023-02-11T03:11:23.983Z,11.73
2023-02-11T03:13:58.124Z,16.27
2023-02-11T03:16:35.340Z,16.15
2023-02-11T03:19:12.304Z,4.97
2023-02-11T03:21:47.204Z,11.23
2023-02-11T03:24:25.709Z,12.13
2023-02-11T03:27:03.417Z,3.83
2023-02-11T03:29:43.442Z,3.65
2023-02-11T03:32:22.792Z,5.30
2023-02-11T03:34:59.880Z,2.17
2023-02-11T03:37:36.699Z,4.70
2023-02-11T03:40:13.388Z,2.75
2023-02-11T03:42:51.105Z,4.03
2023-02-11T03:45:25.348Z,4.88
2023-02-11T03:48:01.455Z,7.40
2023-02-11T03:50:35.939Z,5.03
2023-02-11T03:53:09.918Z,5.05
2023-02-11T03:55:43.846Z,12.02
2023-02-11T03:58:16.691Z,3.55
2023-02-11T04:00:49.114Z,3.10
2023-02-11T04:03:21.632Z,5.60
2023-02-11T04:05:54.133Z,7.03
2023-02-11T04:08:27.429Z,7.85
2023-02-11T04:10:59.752Z,6.78
2023-02-11T04:13:32.146Z,21.58
2023-02-11T04:16:04.811Z,12.20
2023-02-11T04:18:37.607Z,9.48
2023-02-11T04:21:09.960Z,8.63
2023-02-11T04:23:43.196Z,10.32
2023-02-11T04:26:15.501Z,11.02
2023-02-11T04:28:48.228Z,3.45
2023-02-11T04:31:20.701Z,19.88
2023-02-11T04:33:53.188Z,21.10
2023-02-11T04:36:25.542Z,14.68
2023-02-11T04:38:58.603Z,11.93
2023-02-11T04:41:31.068Z,10.18
2023-02-11T04:44:04.146Z,30.25
2023-02-11T04:46:36.614Z,31.73
2023-02-11T04:49:12.390Z,24.83
2023-02-11T04:51:46.999Z,7.45
2023-02-11T04:54:22.041Z,3.78
2023-02-11T04:56:54.460Z,17.08
2023-02-11T04:59:27.094Z,10.77
2023-02-11T05:01:59.496Z,18.45
2023-02-11T05:04:32.125Z,18.02
2023-02-11T05:07:04.635Z,7.50
2023-02-11T05:09:37.696Z,4.15
2023-02-11T05:12:10.118Z,13.60
2023-02-11T05:14:42.520Z,9.65
2023-02-11T05:17:14.945Z,11.57
2023-02-11T05:19:47.324Z,8.40
2023-02-11T05:22:21.240Z,6.50
2023-02-11T05:24:54.207Z,13.75
2023-02-11T05:27:26.627Z,13.98
2023-02-11T05:29:59.388Z,5.93
2023-02-11T05:32:32.373Z,9.73
2023-02-11T05:35:05.391Z,6.63
2023-02-11T05:37:38.321Z,8.45
2023-02-11T05:40:11.853Z,6.30
2023-02-11T05:42:44.359Z,3.80
2023-02-11T05:45:16.877Z,11.25
2023-02-11T05:47:49.442Z,9.80
2023-02-11T05:50:21.752Z,8.38
2023-02-11T05:52:57.682Z,10.00
2023-02-11T05:55:31.125Z,10.32
2023-02-11T05:58:03.969Z,6.35
2023-02-11T06:00:36.750Z,8.13
2023-02-11T06:03:09.189Z,5.47
2023-02-11T06:05:42.874Z,10.70
2023-02-11T06:08:16.039Z,11.25
2023-02-11T06:10:49.047Z,8.13
2023-02-11T06:13:21.491Z,4.63
2023-02-11T06:15:57.892Z,6.70
2023-02-11T06:18:31.517Z,12.20
2023-02-11T06:21:07.526Z,2.42
2023-02-11T06:23:40.054Z,6.93
2023-02-11T06:26:18.520Z,9.00
2023-02-11T06:28:51.112Z,8.00
2023-02-11T06:31:23.808Z,13.30
2023-02-11T06:33:56.287Z,22.10
2023-02-11T06:36:28.687Z,9.10
2023-02-11T06:39:01.956Z,9.13
2023-02-11T06:41:34.981Z,10.35
2023-02-11T06:44:07.464Z,17.60
2023-02-11T06:46:39.857Z,15.93
2023-02-11T06:49:12.782Z,49.33
2023-02-11T06:51:45.161Z,20.67
2023-02-11T06:54:17.771Z,12.20
2023-02-11T06:56:50.814Z,30.05
2023-02-11T06:59:23.340Z,21.48
2023-02-11T07:01:55.773Z,43.88
2023-02-11T07:04:28.429Z,20.88
2023-02-11T07:07:01.002Z,14.52
2023-02-11T07:09:33.697Z,9.57
2023-02-11T07:12:09.021Z,10.40
2023-02-11T07:14:41.502Z,13.10
2023-02-11T07:17:13.895Z,24.23
2023-02-11T07:19:46.327Z,30.25
2023-02-11T07:22:18.782Z,43.70
2023-02-11T07:24:51.206Z,33.47
2023-02-11T07:27:24.273Z,28.83
2023-02-11T07:29:56.788Z,38.67
2023-02-11T07:32:29.408Z,37.60
2023-02-11T07:35:01.970Z,24.50
2023-02-11T07:37:34.780Z,28.42
2023-02-11T07:40:08.065Z,21.50
2023-02-11T07:42:41.093Z,19.92
2023-02-11T07:45:13.536Z,16.55
2023-02-11T07:47:45.941Z,23.35
2023-02-11T07:50:18.477Z,9.82
2023-02-11T07:52:50.990Z,15.90
2023-02-11T07:55:23.389Z,11.18
2023-02-11T07:57:56.414Z,19.17
2023-02-11T08:00:28.855Z,13.27
2023-02-11T08:03:01.358Z,7.65
2023-02-11T08:05:33.871Z,6.22
2023-02-11T08:08:06.329Z,7.32
2023-02-11T08:10:38.694Z,10.70
2023-02-11T08:13:11.869Z,14.07
2023-02-11T08:15:45.199Z,8.25
2023-02-11T08:18:17.578Z,4.95
2023-02-11T08:20:50.241Z,5.30
2023-02-11T08:23:22.739Z,5.90
2023-02-11T08:25:55.094Z,10.75
2023-02-11T08:28:28.080Z,5.53
2023-02-11T08:31:05.644Z,18.88
2023-02-11T08:33:40.279Z,33.95
2023-02-11T08:36:15.149Z,7.50
2023-02-11T08:38:47.791Z,6.97
2023-02-11T08:41:20.212Z,20.08
2023-02-11T08:43:53.229Z,6.85
2023-02-11T08:46:26.320Z,16.02
2023-02-11T08:48:58.787Z,9.13
2023-02-11T08:51:31.729Z,23.75
2023-02-11T08:54:05.452Z,21.40
2023-02-11T08:56:41.013Z,14.38
2023-02-11T08:59:14.630Z,20.42
2023-02-11T09:01:47.335Z,10.55
2023-02-11T09:04:19.732Z,6.95
2023-02-11T09:06:52.153Z,9.13
2023-02-11T09:09:24.507Z,11.48
2023-02-11T09:11:56.966Z,16.20
2023-02-11T09:14:29.981Z,11.38
2023-02-11T09:17:02.488Z,23.65
2023-02-11T09:19:35.079Z,10.63
2023-02-11T09:22:07.780Z,14.35
2023-02-11T09:24:40.166Z,12.32
2023-02-11T09:27:12.649Z,9.35
2023-02-11T09:29:45.695Z,59.08
2023-02-11T09:32:18.179Z,9.30
2023-02-11T09:34:50.913Z,12.52
2023-02-11T09:37:23.355Z,11.18
2023-02-11T09:39:55.630Z,6.10
2023-02-11T09:42:42.816Z,6.40
2023-02-11T09:45:19.498Z,13.75
2023-02-11T09:47:56.562Z,8.98
2023-02-11T09:50:32.195Z,11.32
2023-02-11T09:53:11.463Z,13.75
2023-02-11T09:55:46.572Z,11.10
2023-02-11T09:58:25.465Z,15.45
2023-02-11T10:01:06.323Z,11.30
2023-02-11T10:03:54.707Z,9.93
2023-02-11T10:06:40.344Z,11.90
2023-02-11T10:09:36.814Z,11.23
2023-02-11T10:12:27.143Z,10.38
2023-02-11T10:15:17.455Z,10.00
2023-02-11T10:18:12.795Z,6.88
2023-02-11T10:20:57.268Z,12.23
2023-02-11T10:23:34.133Z,14.60
2023-02-11T10:26:12.990Z,9.43
2023-02-11T10:28:47.755Z,10.82
2023-02-11T10:31:24.923Z,9.00
2023-02-11T10:34:02.469Z,5.72
2023-02-11T10:36:37.301Z,8.25
2023-02-11T10:39:15.457Z,13.25
2023-02-11T10:41:52.911Z,11.32
2023-02-11T10:44:30.084Z,11.18
2023-02-11T10:47:09.073Z,11.15
2023-02-11T10:49:43.784Z,13.27
2023-02-11T10:52:21.373Z,12.05
2023-02-11T10:54:59.638Z,5.28
2023-02-11T10:57:36.031Z,14.15
2023-02-11T11:00:26.739Z,21.48
2023-02-11T11:03:02.321Z,13.02
2023-02-11T11:05:44.317Z,13.50
2023-02-11T11:08:17.867Z,12.57
2023-02-11T11:11:04.626Z,20.08
2023-02-11T11:13:38.436Z,15.10
2023-02-11T11:16:20.824Z,13.75
2023-02-11T11:19:14.261Z,11.65
2023-02-11T11:21:49.087Z,12.73
2023-02-11T11:24:26.827Z,16.13
2023-02-11T11:27:02.786Z,9.43
2023-02-11T11:29:39.206Z,11.27
2023-02-11T11:32:15.263Z,8.45
2023-02-11T11:34:51.100Z,13.85
2023-02-11T11:37:27.180Z,8.63
2023-02-11T11:40:03.229Z,10.75
2023-02-11T11:42:38.096Z,8.63
2023-02-11T11:45:24.042Z,7.93
2023-02-11T11:48:00.225Z,10.85
2023-02-11T11:50:36.631Z,13.52
2023-02-11T11:53:16.060Z,10.32
2023-02-11T11:55:58.626Z,10.27
2023-02-11T11:58:32.629Z,15.32
2023-02-11T12:01:23.492Z,12.63
2023-02-11T12:04:20.059Z,10.23
2023-02-11T12:07:02.109Z,10.00
2023-02-11T12:09:43.573Z,9.50
2023-02-11T12:12:26.597Z,8.50
2023-02-11T12:15:13.343Z,7.55
2023-02-11T12:17:57.044Z,9.90
2023-02-11T12:20:45.825Z,8.20
2023-02-11T12:23:35.861Z,6.00
2023-02-11T12:26:15.593Z,7.60
2023-02-11T12:31:46.326Z,6.25
2023-02-11T12:34:35.731Z,9.02
2023-02-11T12:37:18.917Z,13.35
2023-02-11T12:39:58.331Z,7.97
2023-02-11T12:43:07.108Z,8.60
2023-02-11T12:45:53.429Z,7.90
2023-02-11T12:48:39.507Z,8.85
2023-02-11T12:51:24.924Z,10.55
2023-02-11T12:54:15.667Z,5.60
2023-02-11T12:56:54.137Z,7.07
2023-02-11T12:59:38.116Z,9.07
2023-02-11T13:02:26.274Z,5.35
2023-02-11T13:05:04.140Z,20.48
2023-02-11T13:07:41.482Z,39.63
2023-02-11T13:10:25.241Z,9.13
2023-02-11T13:13:16.685Z,6.25
2023-02-11T13:15:54.613Z,9.68
2023-02-11T13:18:36.527Z,10.60
2023-02-11T13:21:26.262Z,8.30
2023-02-11T13:24:08.024Z,6.78
2023-02-11T13:26:45.654Z,9.43
2023-02-11T13:29:33.357Z,8.65
2023-02-11T13:32:09.128Z,5.57
2023-02-11T13:34:56.459Z,5.90
2023-02-11T13:37:35.940Z,7.32
2023-02-11T13:40:21.488Z,6.72
2023-02-11T13:42:56.175Z,7.10
2023-02-11T13:45:31.412Z,13.35
2023-02-11T13:48:07.553Z,10.13
2023-02-11T13:50:46.714Z,8.88
2023-02-11T13:53:20.058Z,6.88
2023-02-11T13:56:05.435Z,6.30
2023-02-11T13:58:48.255Z,10.18
2023-02-11T14:01:41.292Z,8.35
2023-02-11T14:04:43.753Z,5.40
2023-02-11T14:07:45.889Z,2.95
2023-02-11T14:10:54.686Z,9.82
2023-02-11T14:13:33.037Z,4.53
2023-02-11T14:16:08.971Z,4.60
2023-02-11T14:19:02.333Z,7.25
2023-02-11T14:21:37.858Z,5.45
2023-02-11T14:24:43.794Z,7.60
2023-02-11T14:27:23.309Z,5.63
2023-02-11T14:30:22.014Z,8.02
2023-02-11T14:33:11.265Z,7.55
2023-02-11T14:35:57.322Z,9.45
2023-02-11T14:38:45.612Z,7.05
2023-02-11T14:41:22.672Z,7.85
2023-02-11T14:43:58.259Z,5.68
2023-02-11T14:46:33.081Z,4.60
2023-02-11T14:49:05.980Z,4.00
2023-02-11T14:51:40.498Z,5.10
2023-02-11T14:54:21.944Z,6.45
2023-02-11T14:57:06.564Z,5.18
2023-02-11T14:59:39.764Z,6.63
2023-02-11T15:02:21.776Z,5.13
2023-02-11T15:04:54.850Z,4.57
2023-02-11T15:07:27.382Z,6.60
2023-02-11T15:10:00.469Z,4.93
2023-02-11T15:12:34.892Z,11.93
2023-02-11T15:15:13.926Z,17.30
2023-02-11T15:17:46.840Z,21.20
2023-02-11T15:20:24.469Z,43.55
2023-02-11T15:22:59.505Z,25.05
2023-02-11T15:25:34.294Z,12.50
2023-02-11T15:28:21.462Z,14.43
2023-02-11T15:30:59.840Z,18.00
2023-02-11T15:33:33.035Z,16.83
2023-02-11T15:36:06.518Z,24.65
2023-02-11T15:38:39.745Z,29.20
2023-02-11T15:41:35.294Z,31.52
2023-02-11T15:44:27.197Z,30.92
2023-02-11T15:47:00.152Z,29.30
2023-02-11T15:49:32.992Z,23.38
2023-02-11T15:52:08.014Z,20.90
2023-02-11T15:54:45.800Z,25.48
2023-02-11T15:57:21.366Z,37.35
2023-02-11T15:59:55.596Z,58.65
2023-02-11T16:02:31.986Z,44.05
2023-02-11T16:05:07.339Z,26.90
2023-02-11T16:07:43.030Z,31.42
2023-02-11T16:10:25.457Z,36.03
2023-02-11T16:13:16.705Z,55.60
2023-02-11T16:15:56.009Z,55.67
2023-02-11T16:18:38.344Z,59.95
2023-02-11T16:21:16.371Z,74.15
2023-02-11T16:23:51.419Z,55.92
2023-02-11T16:26:28.792Z,57.10
2023-02-11T16:29:12.511Z,64.32
2023-02-11T16:31:47.741Z,61.15
2023-02-11T16:34:22.456Z,50.78
2023-02-11T16:36:54.912Z,58.03
2023-02-11T16:39:27.273Z,58.20
2023-02-11T16:41:59.981Z,81.30
2023-02-11T16:44:34.181Z,89.50
2023-02-11T16:47:23.389Z,75.90
2023-02-11T16:49:56.520Z,62.17
2023-02-11T16:52:30.797Z,42.50
2023-02-11T16:55:04.456Z,62.33
2023-02-11T16:57:36.820Z,67.13
2023-02-11T17:00:15.343Z,67.80
2023-02-11T17:02:47.859Z,77.68
2023-02-11T17:05:22.608Z,97.43
2023-02-11T17:07:54.944Z,94.38
2023-02-11T17:10:28.134Z,79.50
2023-02-11T17:13:01.111Z,89.22
2023-02-11T17:15:34.409Z,126.78
2023-02-11T17:18:06.732Z,87.38
2023-02-11T17:20:39.243Z,97.90
2023-02-11T17:23:11.674Z,93.18
2023-02-11T17:25:44.077Z,73.25
2023-02-11T17:28:16.461Z,70.55
2023-02-11T17:30:49.621Z,72.78
2023-02-11T17:33:22.376Z,81.53
2023-02-11T17:35:55.070Z,96.03
2023-02-11T17:38:27.606Z,78.75
2023-02-11T17:41:01.420Z,229.07
2023-02-11T17:43:33.889Z,223.98
2023-02-11T17:46:08.204Z,100.22
2023-02-11T17:48:40.677Z,76.65
2023-02-11T17:51:24.642Z,42.33
2023-02-11T17:53:58.107Z,59.60
2023-02-11T17:56:32.767Z,15.20
2023-02-11T17:59:07.653Z,143.98
2023-02-11T18:01:42.290Z,85.63
2023-02-11T18:04:17.049Z,88.75
2023-02-11T18:06:49.601Z,62.80
2023-02-11T18:09:21.960Z,56.35
2023-02-11T18:11:54.632Z,45.50
2023-02-11T18:14:26.958Z,33.13
2023-02-11T18:17:00.143Z,20.73
2023-02-11T18:19:35.194Z,19.75
2023-02-11T18:22:09.042Z,49.83
2023-02-11T18:24:41.403Z,52.17
2023-02-11T18:27:13.966Z,46.72
2023-02-11T18:29:46.348Z,54.80
2023-02-11T18:32:19.515Z,50.00
2023-02-11T18:34:51.868Z,44.50
2023-02-11T18:37:24.725Z,46.88
2023-02-11T18:39:57.024Z,37.90
2023-02-11T18:42:29.403Z,37.20
2023-02-11T18:45:02.169Z,70.25
2023-02-11T18:47:36.940Z,58.83
2023-02-11T18:50:12.987Z,42.97
2023-02-11T18:52:45.429Z,31.67
2023-02-11T18:55:22.544Z,37.30
2023-02-11T18:57:55.900Z,80.25
2023-02-11T19:00:28.260Z,63.85
2023-02-11T19:03:01.440Z,63.13
2023-02-11T19:05:40.592Z,49.53
2023-02-11T19:08:13.999Z,65.32
2023-02-11T19:10:47.224Z,56.80
2023-02-11T19:13:19.705Z,54.83
2023-02-11T19:15:52.329Z,59.30
2023-02-11T19:18:25.633Z,52.40
2023-02-11T19:20:58.022Z,52.75
2023-02-11T19:23:30.411Z,51.40
2023-02-11T19:26:03.918Z,51.28
2023-02-11T19:28:36.773Z,32.75
2023-02-11T19:31:09.494Z,54.03
2023-02-11T19:33:42.856Z,33.60
2023-02-11T19:36:16.564Z,67.25
2023-02-11T19:38:48.965Z,46.45
2023-02-11T19:41:22.472Z,27.67
2023-02-11T19:43:56.138Z,35.35
2023-02-11T19:46:30.948Z,40.58
2023-02-11T19:49:04.868Z,32.83
2023-02-11T19:51:38.574Z,46.08
2023-02-11T19:54:11.029Z,27.25
2023-02-11T19:56:44.108Z,36.58
2023-02-11T19:59:16.715Z,35.63
2023-02-11T20:01:49.378Z,38.75
2023-02-11T20:04:24.397Z,42.85
2023-02-11T20:06:56.930Z,31.52
2023-02-11T20:09:30.404Z,37.63
2023-02-11T20:12:03.119Z,54.85
2023-02-11T20:14:35.714Z,46.95
2023-02-11T20:17:08.109Z,35.90
2023-02-11T20:19:41.398Z,42.17
2023-02-11T20:22:13.813Z,47.92
2023-02-11T20:24:46.271Z,45.08
2023-02-11T20:27:20.119Z,35.90
2023-02-11T20:29:52.777Z,47.90
2023-02-11T20:32:25.206Z,64.13
2023-02-11T20:34:58.714Z,77.88
2023-02-11T20:37:31.102Z,46.75
2023-02-11T20:40:03.805Z,54.33
2023-02-11T20:42:36.222Z,41.42
2023-02-11T20:45:09.134Z,23.65
2023-02-11T20:47:41.825Z,40.30
2023-02-11T20:50:15.134Z,29.10
2023-02-11T20:52:47.960Z,70.10
2023-02-11T20:55:20.638Z,65.10
2023-02-11T20:57:53.159Z,62.63
2023-02-11T21:00:25.625Z,44.47
2023-02-11T21:02:57.988Z,50.10
2023-02-11T21:05:31.195Z,65.05
2023-02-11T21:08:04.259Z,44.67
2023-02-11T21:10:36.694Z,67.85
2023-02-11T21:13:09.142Z,50.13
2023-02-11T21:15:41.649Z,36.40
2023-02-11T21:18:14.184Z,41.38
2023-02-11T21:20:47.603Z,43.80
2023-02-11T21:23:20.211Z,39.20
2023-02-11T21:25:53.571Z,52.17
2023-02-11T21:28:26.383Z,26.73
2023-02-11T21:30:59.035Z,33.13
2023-02-11T21:33:32.949Z,29.98
2023-02-11T21:36:07.548Z,23.23
2023-02-11T21:38:40.155Z,47.38
2023-02-11T21:41:12.871Z,20.67
2023-02-11T21:43:45.736Z,40.08
2023-02-11T21:46:19.544Z,43.50
2023-02-11T21:48:52.169Z,52.40
2023-02-11T21:51:26.444Z,17.35
2023-02-11T21:54:01.538Z,13.95
2023-02-11T21:56:34.851Z,17.42
2023-02-11T21:59:07.198Z,31.48
2023-02-11T22:01:39.945Z,29.70
2023-02-11T22:04:12.473Z,29.33
2023-02-11T22:06:45.670Z,42.55
2023-02-11T22:09:18.044Z,26.52
2023-02-11T22:11:50.478Z,22.27
2023-02-11T22:14:22.896Z,19.60
2023-02-11T22:16:55.267Z,40.28
2023-02-11T22:19:27.792Z,35.47
2023-02-11T22:22:00.879Z,16.73
2023-02-11T22:24:35.208Z,28.10
2023-02-11T22:27:07.629Z,37.08
2023-02-11T22:29:40.020Z,38.15
2023-02-11T22:32:12.604Z,29.10
2023-02-11T22:34:45.143Z,40.20
2023-02-11T22:37:18.195Z,28.27
2023-02-11T22:39:50.613Z,25.52
2023-02-11T22:42:22.995Z,42.28
2023-02-11T22:44:55.358Z,35.42
2023-02-11T22:47:27.745Z,31.77
2023-02-11T22:50:00.175Z,43.03
2023-02-11T22:52:35.271Z,31.48
2023-02-11T22:55:07.909Z,45.67
2023-02-11T22:57:40.255Z,25.52
2023-02-11T23:00:13.980Z,29.60
2023-02-11T23:02:46.611Z,30.92
2023-02-11T23:05:19.020Z,42.85
2023-02-11T23:07:52.152Z,31.00
2023-02-11T23:10:24.619Z,22.15
2023-02-11T23:12:57.011Z,13.45
2023-02-11T23:15:29.451Z,40.65
2023-02-11T23:18:01.963Z,38.50
2023-02-11T23:20:35.050Z,34.63
2023-02-11T23:23:08.353Z,28.52
2023-02-11T23:25:44.320Z,19.33
2023-02-11T23:28:16.900Z,28.33
2023-02-11T23:30:49.286Z,23.25
2023-02-11T23:33:22.599Z,29.02
2023-02-11T23:35:55.200Z,25.90
2023-02-11T23:38:28.514Z,14.20
2023-02-11T23:41:01.016Z,24.42
2023-02-11T23:43:33.581Z,28.20
2023-02-11T23:46:06.257Z,8.80
2023-02-11T23:48:39.742Z,4.72
2023-02-11T23:51:12.248Z,7.40
2023-02-11T23:53:45.955Z,7.28
2023-02-11T23:56:20.575Z,13.35
2023-02-11T23:58:54.928Z,14.93
